PWSweather.com
Personal Weather Stations
Station Observations
BERGSLAGEN
Bergslagen, NoraSE

BergslagenNoraSE

Lat: 59.532278, Lon: 15.016132

Elevation: 492

Station Type: Davis Vantage Pro2 Plus Wireless

http://www.weather.tallasen.se

Latest ConditionsUpdated 9:30:03 AM GMT+01:01 Friday, Aug 18, 2017
Currently Today's Max Today's Min Today's Average
Temperature 58.8°F14.9°C 58.8°F14.9°C 55.6°F13.1°C 56.3°F13.5°C
Dew Point 57.4°F14.1°C 57.4°F14.1°C 51.6°F10.9°C 53.9°F12.2°C
Winds Calm Calm 3.0 mph SE4.8 kmh SE - 0.4 mph 0.6 kmh
Wind Gusts 4.0 mph6.4 kmh 10.0 mph16.1 kmh - -
Humidity 95% 95% 86% 91%
Pressure 29.78 in1008.5 mb 29.88 in1011.9 mb 29.78 in1008.5 mb -
Precipitation - 0.18 in4.6 mm - -
Hour Temp Dew Point Humidity Winds Wind Gusts Pressure Precip Precip Rate Daily Precip Total
09:30 AM 58.8°F14.9°C 57.4°F14.1°C 95% Calm Calm 4.0 mph6.4 kmh 29.78 in1008.5 mb 0.00 in0.0 mm 0.00 in0.0 mm 0.18 in4.6 mm
09:15 AM 58.3°F14.6°C 56.9°F13.8°C 95% 1.0 mph SE1.6 kmh SE 4.0 mph6.4 kmh 29.78 in1008.5 mb 0.00 in0.0 mm 0.00 in0.0 mm 0.18 in4.6 mm
09:00 AM 57.9°F14.4°C 56.5°F13.6°C 95% Calm Calm 4.0 mph6.4 kmh 29.78 in1008.5 mb 0.01 in0.3 mm 0.00 in0.0 mm 0.18 in4.6 mm
08:45 AM 57.4°F14.1°C 56.0°F13.3°C 95% 1.0 mph SE1.6 kmh SE 4.0 mph6.4 kmh 29.78 in1008.5 mb 0.02 in0.5 mm 0.00 in0.0 mm 0.18 in4.6 mm
08:30 AM 56.8°F13.8°C 55.4°F13.0°C 95% 1.0 mph SE1.6 kmh SE 3.0 mph4.8 kmh 29.78 in1008.5 mb 0.02 in0.5 mm 0.00 in0.0 mm 0.18 in4.6 mm
08:15 AM 56.8°F13.8°C 55.4°F13.0°C 95% 1.0 mph ESE1.6 kmh ESE 6.0 mph9.7 kmh 29.78 in1008.5 mb 0.03 in0.8 mm 0.00 in0.0 mm 0.18 in4.6 mm
08:00 AM 56.7°F13.7°C 55.2°F12.9°C 95% 2.0 mph SE3.2 kmh SE 6.0 mph9.7 kmh 29.78 in1008.5 mb 0.03 in0.8 mm 0.00 in0.0 mm 0.17 in4.3 mm
07:45 AM 56.8°F13.8°C 55.4°F13.0°C 95% 1.0 mph SE1.6 kmh SE 8.0 mph12.9 kmh 29.78 in1008.5 mb 0.04 in1.0 mm 0.00 in0.0 mm 0.17 in4.3 mm
07:30 AM 56.7°F13.7°C 55.2°F12.9°C 95% 1.0 mph SE1.6 kmh SE 5.0 mph8.0 kmh 29.78 in1008.5 mb 0.04 in1.0 mm 0.00 in0.0 mm 0.16 in4.1 mm
07:15 AM 56.5°F13.6°C 54.8°F12.7°C 94% 1.0 mph SE1.6 kmh SE 4.0 mph6.4 kmh 29.78 in1008.5 mb 0.05 in1.3 mm 0.04 in1.0 mm 0.15 in3.8 mm
07:00 AM 56.5°F13.6°C 54.8°F12.7°C 94% 1.0 mph SE1.6 kmh SE 4.0 mph6.4 kmh 29.78 in1008.5 mb 0.04 in1.0 mm 0.00 in0.0 mm 0.13 in3.3 mm
06:45 AM 56.1°F13.4°C 54.4°F12.4°C 94% 1.0 mph SE1.6 kmh SE 4.0 mph6.4 kmh 29.78 in1008.5 mb 0.05 in1.3 mm 0.04 in1.0 mm 0.13 in3.3 mm
06:30 AM 56.1°F13.4°C 54.4°F12.4°C 94% 3.0 mph SE4.8 kmh SE 10.0 mph16.1 kmh 29.78 in1008.5 mb 0.04 in1.0 mm 0.00 in0.0 mm 0.11 in2.8 mm
06:15 AM 56.1°F13.4°C 54.4°F12.4°C 94% 1.0 mph SE1.6 kmh SE 6.0 mph9.7 kmh 29.78 in1008.5 mb 0.05 in1.3 mm 0.00 in0.0 mm 0.10 in2.5 mm
06:00 AM 56.1°F13.4°C 54.4°F12.4°C 94% Calm Calm 6.0 mph9.7 kmh 29.78 in1008.5 mb 0.05 in1.3 mm 0.01 in0.3 mm 0.09 in2.3 mm
05:45 AM 56.1°F13.4°C 54.4°F12.4°C 94% Calm Calm 5.0 mph8.0 kmh 29.79 in1008.8 mb 0.04 in1.0 mm 0.00 in0.0 mm 0.08 in2.0 mm
05:30 AM 56.1°F13.4°C 54.1°F12.3°C 93% 1.0 mph SSE1.6 kmh SSE 6.0 mph9.7 kmh 29.79 in1008.8 mb 0.04 in1.0 mm 0.04 in1.0 mm 0.07 in1.8 mm
05:15 AM 56.1°F13.4°C 54.1°F12.3°C 93% Calm Calm 4.0 mph6.4 kmh 29.79 in1008.8 mb 0.03 in0.8 mm 0.00 in0.0 mm 0.06 in1.5 mm
05:00 AM 56.5°F13.6°C 54.5°F12.5°C 93% Calm Calm 4.0 mph6.4 kmh 29.80 in1009.1 mb 0.03 in0.8 mm 0.00 in0.0 mm 0.05 in1.3 mm
04:45 AM 56.5°F13.6°C 54.2°F12.3°C 92% Calm Calm 5.0 mph8.0 kmh 29.81 in1009.5 mb 0.03 in0.8 mm 0.00 in0.0 mm 0.04 in1.0 mm
04:30 AM 56.1°F13.4°C 53.8°F12.1°C 92% Calm Calm 1.0 mph1.6 kmh 29.81 in1009.5 mb 0.03 in0.8 mm 0.04 in1.0 mm 0.03 in0.8 mm
04:15 AM 56.1°F13.4°C 53.8°F12.1°C 92% Calm Calm 1.0 mph1.6 kmh 29.81 in1009.5 mb 0.02 in0.5 mm 0.00 in0.0 mm 0.02 in0.5 mm
04:00 AM 56.1°F13.4°C 53.5°F11.9°C 91% Calm Calm 1.0 mph1.6 kmh 29.82 in1009.8 mb 0.02 in0.5 mm 0.01 in0.3 mm 0.02 in0.5 mm
03:45 AM 55.9°F13.3°C 53.0°F11.7°C 90% Calm Calm 4.0 mph6.4 kmh 29.82 in1009.8 mb 0.01 in0.3 mm 0.04 in1.0 mm 0.01 in0.3 mm
03:30 AM 55.9°F13.3°C 53.0°F11.7°C 90% Calm Calm -- 29.83 in1010.2 mb 0.00 in0.0 mm 0.00 in0.0 mm 0.00 in0.0 mm
03:15 AM 55.9°F13.3°C 52.7°F11.5°C 89% Calm Calm -- 29.83 in1010.2 mb 0.00 in0.0 mm 0.00 in0.0 mm 0.00 in0.0 mm
03:00 AM 56.1°F13.4°C 52.9°F11.6°C 89% Calm Calm 1.0 mph1.6 kmh 29.84 in1010.5 mb 0.00 in0.0 mm 0.00 in0.0 mm 0.00 in0.0 mm
02:45 AM 56.1°F13.4°C 52.9°F11.6°C 89% Calm Calm 1.0 mph1.6 kmh 29.84 in1010.5 mb 0.00 in0.0 mm 0.00 in0.0 mm 0.00 in0.0 mm
02:30 AM 56.1°F13.4°C 52.9°F11.6°C 89% Calm Calm 1.0 mph1.6 kmh 29.84 in1010.5 mb 0.00 in0.0 mm 0.00 in0.0 mm 0.00 in0.0 mm
02:15 AM 55.9°F13.3°C 52.4°F11.3°C 88% Calm Calm 1.0 mph1.6 kmh 29.85 in1010.8 mb 0.00 in0.0 mm 0.00 in0.0 mm 0.00 in0.0 mm
02:00 AM 55.8°F13.2°C 52.3°F11.3°C 88% Calm Calm 1.0 mph1.6 kmh 29.85 in1010.8 mb 0.00 in0.0 mm 0.00 in0.0 mm 0.00 in0.0 mm
01:45 AM 55.8°F13.2°C 52.3°F11.3°C 88% Calm Calm 2.0 mph3.2 kmh 29.85 in1010.8 mb 0.00 in0.0 mm 0.00 in0.0 mm 0.00 in0.0 mm
01:30 AM 55.8°F13.2°C 51.9°F11.1°C 87% Calm Calm 1.0 mph1.6 kmh 29.86 in1011.2 mb 0.00 in0.0 mm 0.00 in0.0 mm 0.00 in0.0 mm
01:15 AM 55.6°F13.1°C 51.8°F11.0°C 87% Calm Calm 1.0 mph1.6 kmh 29.86 in1011.2 mb 0.00 in0.0 mm 0.00 in0.0 mm 0.00 in0.0 mm
01:00 AM 55.8°F13.2°C 51.9°F11.1°C 87% Calm Calm -- 29.86 in1011.2 mb 0.00 in0.0 mm 0.00 in0.0 mm 0.00 in0.0 mm
12:45 AM 55.9°F13.3°C 52.1°F11.2°C 87% Calm Calm -- 29.87 in1011.5 mb 0.00 in0.0 mm 0.00 in0.0 mm 0.00 in0.0 mm
12:30 AM 55.8°F13.2°C 51.9°F11.1°C 87% Calm Calm -- 29.87 in1011.5 mb 0.00 in0.0 mm 0.00 in0.0 mm 0.00 in0.0 mm
12:15 AM 55.8°F13.2°C 51.6°F10.9°C 86% Calm Calm 3.0 mph4.8 kmh 29.88 in1011.9 mb 0.00 in0.0 mm 0.00 in0.0 mm 0.00 in0.0 mm
12:00 AM 55.8°F13.2°C 51.6°F10.9°C 86% Calm Calm 1.0 mph1.6 kmh 29.88 in1011.9 mb 0.00 in0.0 mm 0.00 in0.0 mm 0.00 in0.0 mm